sensor_id;sensor_type;location;lat;lon;timestamp;P1;durP1;ratioP1;P2;durP2;ratioP2
68140;SDS011;54941;52.220;104.306;2024-03-02T00:01:47;22.42;;;10.52;;
68140;SDS011;54941;52.220;104.306;2024-03-02T00:04:15;21.33;;;10.18;;
68140;SDS011;54941;52.220;104.306;2024-03-02T00:06:41;22.35;;;10.38;;
68140;SDS011;54941;52.220;104.306;2024-03-02T00:09:07;23.67;;;9.90;;
68140;SDS011;54941;52.220;104.306;2024-03-02T00:11:35;22.63;;;10.88;;
68140;SDS011;54941;52.220;104.306;2024-03-02T00:14:02;19.70;;;9.25;;
68140;SDS011;54941;52.220;104.306;2024-03-02T00:16:29;20.95;;;9.90;;
68140;SDS011;54941;52.220;104.306;2024-03-02T00:18:56;22.77;;;10.68;;
68140;SDS011;54941;52.220;104.306;2024-03-02T00:23:55;24.25;;;11.65;;
68140;SDS011;54941;52.220;104.306;2024-03-02T00:26:22;30.13;;;14.50;;
68140;SDS011;54941;52.220;104.306;2024-03-02T00:28:48;22.50;;;11.07;;
68140;SDS011;54941;52.220;104.306;2024-03-02T00:31:14;23.58;;;11.02;;
68140;SDS011;54941;52.220;104.306;2024-03-02T00:33:41;21.27;;;10.70;;
68140;SDS011;54941;52.220;104.306;2024-03-02T00:36:08;21.30;;;10.23;;
68140;SDS011;54941;52.220;104.306;2024-03-02T00:38:40;23.48;;;10.77;;
68140;SDS011;54941;52.220;104.306;2024-03-02T00:41:15;27.63;;;10.10;;
68140;SDS011;54941;52.220;104.306;2024-03-02T00:43:45;23.48;;;9.10;;
68140;SDS011;54941;52.220;104.306;2024-03-02T00:46:16;22.15;;;10.30;;
68140;SDS011;54941;52.220;104.306;2024-03-02T00:48:46;23.73;;;11.23;;
68140;SDS011;54941;52.220;104.306;2024-03-02T00:51:14;23.70;;;10.18;;
68140;SDS011;54941;52.220;104.306;2024-03-02T00:53:42;22.85;;;9.73;;
68140;SDS011;54941;52.220;104.306;2024-03-02T00:56:09;21.45;;;10.80;;
68140;SDS011;54941;52.220;104.306;2024-03-02T00:58:36;26.60;;;10.95;;
68140;SDS011;54941;52.220;104.306;2024-03-02T01:01:03;22.15;;;10.55;;
68140;SDS011;54941;52.220;104.306;2024-03-02T01:03:29;27.17;;;11.68;;
68140;SDS011;54941;52.220;104.306;2024-03-02T01:05:57;26.88;;;10.40;;
68140;SDS011;54941;52.220;104.306;2024-03-02T01:08:23;24.48;;;11.27;;
68140;SDS011;54941;52.220;104.306;2024-03-02T01:10:51;26.52;;;11.38;;
68140;SDS011;54941;52.220;104.306;2024-03-02T01:13:17;28.10;;;11.70;;
68140;SDS011;54941;52.220;104.306;2024-03-02T01:15:44;24.67;;;12.60;;
68140;SDS011;54941;52.220;104.306;2024-03-02T01:18:10;23.60;;;11.52;;
68140;SDS011;54941;52.220;104.306;2024-03-02T01:20:36;23.38;;;9.80;;
68140;SDS011;54941;52.220;104.306;2024-03-02T01:23:02;20.73;;;8.77;;
68140;SDS011;54941;52.220;104.306;2024-03-02T01:25:29;20.40;;;8.63;;
68140;SDS011;54941;52.220;104.306;2024-03-02T01:27:57;16.67;;;8.68;;
68140;SDS011;54941;52.220;104.306;2024-03-02T01:30:23;16.90;;;7.65;;
68140;SDS011;54941;52.220;104.306;2024-03-02T01:32:49;13.25;;;7.07;;
68140;SDS011;54941;52.220;104.306;2024-03-02T01:35:15;18.35;;;8.23;;
68140;SDS011;54941;52.220;104.306;2024-03-02T01:37:42;22.85;;;10.35;;
68140;SDS011;54941;52.220;104.306;2024-03-02T01:40:08;18.95;;;8.63;;
68140;SDS011;54941;52.220;104.306;2024-03-02T01:42:36;19.25;;;8.82;;
68140;SDS011;54941;52.220;104.306;2024-03-02T01:45:05;19.63;;;9.02;;
68140;SDS011;54941;52.220;104.306;2024-03-02T01:47:32;18.88;;;9.20;;
68140;SDS011;54941;52.220;104.306;2024-03-02T01:49:59;17.65;;;8.38;;
68140;SDS011;54941;52.220;104.306;2024-03-02T01:52:26;17.65;;;7.25;;
68140;SDS011;54941;52.220;104.306;2024-03-02T01:54:52;13.20;;;6.53;;
68140;SDS011;54941;52.220;104.306;2024-03-02T01:57:19;17.80;;;7.95;;
68140;SDS011;54941;52.220;104.306;2024-03-02T01:59:45;22.73;;;10.32;;
68140;SDS011;54941;52.220;104.306;2024-03-02T02:02:13;24.42;;;10.98;;
68140;SDS011;54941;52.220;104.306;2024-03-02T02:04:40;26.50;;;12.15;;
68140;SDS011;54941;52.220;104.306;2024-03-02T02:07:06;20.88;;;9.38;;
68140;SDS011;54941;52.220;104.306;2024-03-02T02:09:32;22.83;;;9.75;;
68140;SDS011;54941;52.220;104.306;2024-03-02T02:11:59;22.17;;;9.82;;
68140;SDS011;54941;52.220;104.306;2024-03-02T02:14:25;22.92;;;13.02;;
68140;SDS011;54941;52.220;104.306;2024-03-02T02:16:52;24.55;;;11.52;;
68140;SDS011;54941;52.220;104.306;2024-03-02T02:19:20;24.80;;;12.07;;
68140;SDS011;54941;52.220;104.306;2024-03-02T02:21:47;22.52;;;11.18;;
68140;SDS011;54941;52.220;104.306;2024-03-02T02:24:13;20.40;;;10.65;;
68140;SDS011;54941;52.220;104.306;2024-03-02T02:26:40;22.83;;;10.90;;
68140;SDS011;54941;52.220;104.306;2024-03-02T02:29:06;21.20;;;10.57;;
68140;SDS011;54941;52.220;104.306;2024-03-02T02:31:36;26.85;;;12.35;;
68140;SDS011;54941;52.220;104.306;2024-03-02T02:34:03;25.40;;;13.32;;
68140;SDS011;54941;52.220;104.306;2024-03-02T02:36:29;23.83;;;12.75;;
68140;SDS011;54941;52.220;104.306;2024-03-02T02:38:57;24.83;;;12.63;;
68140;SDS011;54941;52.220;104.306;2024-03-02T02:41:24;21.70;;;10.40;;
68140;SDS011;54941;52.220;104.306;2024-03-02T02:43:50;21.15;;;10.40;;
68140;SDS011;54941;52.220;104.306;2024-03-02T02:46:17;21.95;;;11.50;;
68140;SDS011;54941;52.220;104.306;2024-03-02T02:48:43;23.17;;;10.93;;
68140;SDS011;54941;52.220;104.306;2024-03-02T02:51:09;20.67;;;9.77;;
68140;SDS011;54941;52.220;104.306;2024-03-02T02:53:36;18.55;;;8.38;;
68140;SDS011;54941;52.220;104.306;2024-03-02T02:56:04;16.50;;;8.32;;
68140;SDS011;54941;52.220;104.306;2024-03-02T02:58:30;20.50;;;9.98;;
68140;SDS011;54941;52.220;104.306;2024-03-02T03:00:56;25.25;;;11.15;;
68140;SDS011;54941;52.220;104.306;2024-03-02T03:03:23;28.13;;;12.43;;
68140;SDS011;54941;52.220;104.306;2024-03-02T03:05:49;19.77;;;9.48;;
68140;SDS011;54941;52.220;104.306;2024-03-02T03:08:15;17.02;;;8.63;;
68140;SDS011;54941;52.220;104.306;2024-03-02T03:10:41;15.77;;;7.93;;
68140;SDS011;54941;52.220;104.306;2024-03-02T03:13:09;14.63;;;8.35;;
68140;SDS011;54941;52.220;104.306;2024-03-02T03:15:35;19.48;;;8.70;;
68140;SDS011;54941;52.220;104.306;2024-03-02T03:18:02;16.13;;;8.75;;
68140;SDS011;54941;52.220;104.306;2024-03-02T03:20:29;19.73;;;9.57;;
68140;SDS011;54941;52.220;104.306;2024-03-02T03:22:55;19.00;;;9.00;;
68140;SDS011;54941;52.220;104.306;2024-03-02T03:25:21;18.70;;;9.38;;
68140;SDS011;54941;52.220;104.306;2024-03-02T03:27:48;17.92;;;9.20;;
68140;SDS011;54941;52.220;104.306;2024-03-02T03:30:16;20.90;;;9.80;;
68140;SDS011;54941;52.220;104.306;2024-03-02T03:32:42;20.05;;;9.63;;
68140;SDS011;54941;52.220;104.306;2024-03-02T03:35:08;15.18;;;7.93;;
68140;SDS011;54941;52.220;104.306;2024-03-02T03:37:35;13.57;;;7.20;;
68140;SDS011;54941;52.220;104.306;2024-03-02T03:40:01;14.15;;;6.97;;
68140;SDS011;54941;52.220;104.306;2024-03-02T03:42:29;15.00;;;6.38;;
68140;SDS011;54941;52.220;104.306;2024-03-02T03:44:56;13.98;;;6.15;;
68140;SDS011;54941;52.220;104.306;2024-03-02T03:47:23;12.15;;;6.20;;
68140;SDS011;54941;52.220;104.306;2024-03-02T03:49:50;13.43;;;5.88;;
68140;SDS011;54941;52.220;104.306;2024-03-02T03:52:16;11.52;;;5.72;;
68140;SDS011;54941;52.220;104.306;2024-03-02T03:54:42;11.27;;;6.00;;
68140;SDS011;54941;52.220;104.306;2024-03-02T03:57:08;13.32;;;5.50;;
68140;SDS011;54941;52.220;104.306;2024-03-02T03:59:35;13.93;;;5.07;;
68140;SDS011;54941;52.220;104.306;2024-03-02T04:02:01;11.93;;;4.85;;
68140;SDS011;54941;52.220;104.306;2024-03-02T04:04:29;12.93;;;5.18;;
68140;SDS011;54941;52.220;104.306;2024-03-02T04:06:55;8.90;;;4.55;;
68140;SDS011;54941;52.220;104.306;2024-03-02T04:09:21;13.57;;;4.75;;
68140;SDS011;54941;52.220;104.306;2024-03-02T04:11:48;11.85;;;4.90;;
68140;SDS011;54941;52.220;104.306;2024-03-02T04:14:14;10.82;;;4.25;;
68140;SDS011;54941;52.220;104.306;2024-03-02T04:16:40;8.90;;;3.95;;
68140;SDS011;54941;52.220;104.306;2024-03-02T04:19:07;8.25;;;3.75;;
68140;SDS011;54941;52.220;104.306;2024-03-02T04:21:34;7.78;;;3.58;;
68140;SDS011;54941;52.220;104.306;2024-03-02T04:24:01;11.73;;;5.35;;
68140;SDS011;54941;52.220;104.306;2024-03-02T04:26:27;11.20;;;4.90;;
68140;SDS011;54941;52.220;104.306;2024-03-02T04:28:53;13.88;;;6.22;;
68140;SDS011;54941;52.220;104.306;2024-03-02T04:31:20;19.52;;;7.63;;
68140;SDS011;54941;52.220;104.306;2024-03-02T04:33:46;13.20;;;5.25;;
68140;SDS011;54941;52.220;104.306;2024-03-02T04:36:12;9.02;;;4.13;;
68140;SDS011;54941;52.220;104.306;2024-03-02T04:38:40;11.02;;;4.55;;
68140;SDS011;54941;52.220;104.306;2024-03-02T04:41:07;9.50;;;3.97;;
68140;SDS011;54941;52.220;104.306;2024-03-02T04:43:33;9.35;;;4.07;;
68140;SDS011;54941;52.220;104.306;2024-03-02T04:46:00;9.30;;;3.75;;
68140;SDS011;54941;52.220;104.306;2024-03-02T04:48:27;8.75;;;3.72;;
68140;SDS011;54941;52.220;104.306;2024-03-02T04:50:53;10.60;;;4.03;;
68140;SDS011;54941;52.220;104.306;2024-03-02T04:53:19;10.05;;;3.75;;
68140;SDS011;54941;52.220;104.306;2024-03-02T04:55:47;8.82;;;3.72;;
68140;SDS011;54941;52.220;104.306;2024-03-02T04:58:13;9.32;;;4.10;;
68140;SDS011;54941;52.220;104.306;2024-03-02T05:00:39;12.27;;;4.97;;
68140;SDS011;54941;52.220;104.306;2024-03-02T05:03:06;10.18;;;4.25;;
68140;SDS011;54941;52.220;104.306;2024-03-02T05:05:32;10.30;;;3.78;;
68140;SDS011;54941;52.220;104.306;2024-03-02T05:07:58;10.85;;;4.80;;
68140;SDS011;54941;52.220;104.306;2024-03-02T05:10:24;9.52;;;4.38;;
68140;SDS011;54941;52.220;104.306;2024-03-02T05:12:52;11.25;;;4.25;;
68140;SDS011;54941;52.220;104.306;2024-03-02T05:15:18;9.63;;;4.05;;
68140;SDS011;54941;52.220;104.306;2024-03-02T05:17:45;10.68;;;3.88;;
68140;SDS011;54941;52.220;104.306;2024-03-02T05:20:11;10.05;;;4.13;;
68140;SDS011;54941;52.220;104.306;2024-03-02T05:22:37;8.93;;;3.50;;
68140;SDS011;54941;52.220;104.306;2024-03-02T05:25:04;13.30;;;4.22;;
68140;SDS011;54941;52.220;104.306;2024-03-02T05:27:32;9.50;;;3.90;;
68140;SDS011;54941;52.220;104.306;2024-03-02T05:30:01;5.90;;;2.80;;
68140;SDS011;54941;52.220;104.306;2024-03-02T05:32:30;6.47;;;2.95;;
68140;SDS011;54941;52.220;104.306;2024-03-02T05:34:56;7.15;;;3.30;;
68140;SDS011;54941;52.220;104.306;2024-03-02T05:37:23;9.57;;;3.47;;
68140;SDS011;54941;52.220;104.306;2024-03-02T05:39:49;9.38;;;3.53;;
68140;SDS011;54941;52.220;104.306;2024-03-02T05:42:15;8.30;;;3.83;;
68140;SDS011;54941;52.220;104.306;2024-03-02T05:44:42;8.80;;;3.53;;
68140;SDS011;54941;52.220;104.306;2024-03-02T05:47:10;10.40;;;4.38;;
68140;SDS011;54941;52.220;104.306;2024-03-02T05:49:36;10.40;;;3.30;;
68140;SDS011;54941;52.220;104.306;2024-03-02T05:52:02;10.73;;;4.22;;
68140;SDS011;54941;52.220;104.306;2024-03-02T05:54:28;8.68;;;3.75;;
68140;SDS011;54941;52.220;104.306;2024-03-02T05:56:55;10.18;;;3.30;;
68140;SDS011;54941;52.220;104.306;2024-03-02T05:59:21;7.53;;;3.35;;
68140;SDS011;54941;52.220;104.306;2024-03-02T06:01:47;6.97;;;2.58;;
68140;SDS011;54941;52.220;104.306;2024-03-02T06:04:15;9.18;;;2.45;;
68140;SDS011;54941;52.220;104.306;2024-03-02T06:06:42;8.27;;;2.15;;
68140;SDS011;54941;52.220;104.306;2024-03-02T06:09:09;6.50;;;2.67;;
68140;SDS011;54941;52.220;104.306;2024-03-02T06:11:36;4.90;;;2.50;;
68140;SDS011;54941;52.220;104.306;2024-03-02T06:14:03;5.93;;;2.67;;
68140;SDS011;54941;52.220;104.306;2024-03-02T06:16:29;10.05;;;3.83;;
68140;SDS011;54941;52.220;104.306;2024-03-02T06:18:55;6.07;;;1.98;;
68140;SDS011;54941;52.220;104.306;2024-03-02T06:21:23;5.75;;;2.00;;
68140;SDS011;54941;52.220;104.306;2024-03-02T06:23:50;9.00;;;2.70;;
68140;SDS011;54941;52.220;104.306;2024-03-02T06:26:16;8.77;;;2.50;;
68140;SDS011;54941;52.220;104.306;2024-03-02T06:28:43;9.50;;;2.55;;
68140;SDS011;54941;52.220;104.306;2024-03-02T06:31:09;7.13;;;2.90;;
68140;SDS011;54941;52.220;104.306;2024-03-02T06:33:35;9.55;;;3.30;;
68140;SDS011;54941;52.220;104.306;2024-03-02T06:36:02;9.18;;;3.72;;
68140;SDS011;54941;52.220;104.306;2024-03-02T06:38:30;11.43;;;4.25;;
68140;SDS011;54941;52.220;104.306;2024-03-02T06:40:57;11.13;;;5.28;;
68140;SDS011;54941;52.220;104.306;2024-03-02T06:43:23;11.60;;;4.93;;
68140;SDS011;54941;52.220;104.306;2024-03-02T06:45:49;11.05;;;4.97;;
68140;SDS011;54941;52.220;104.306;2024-03-02T06:48:16;13.82;;;5.57;;
68140;SDS011;54941;52.220;104.306;2024-03-02T06:50:42;13.15;;;5.43;;
68140;SDS011;54941;52.220;104.306;2024-03-02T06:53:08;10.48;;;4.28;;
68140;SDS011;54941;52.220;104.306;2024-03-02T06:55:36;10.68;;;5.38;;
68140;SDS011;54941;52.220;104.306;2024-03-02T06:58:02;11.88;;;5.25;;
68140;SDS011;54941;52.220;104.306;2024-03-02T07:00:29;17.63;;;6.43;;
68140;SDS011;54941;52.220;104.306;2024-03-02T07:02:55;16.45;;;5.88;;
68140;SDS011;54941;52.220;104.306;2024-03-02T07:05:21;16.02;;;6.78;;
68140;SDS011;54941;52.220;104.306;2024-03-02T07:07:48;16.95;;;6.43;;
68140;SDS011;54941;52.220;104.306;2024-03-02T07:10:14;11.50;;;5.03;;
68140;SDS011;54941;52.220;104.306;2024-03-02T07:12:42;16.95;;;6.07;;
68140;SDS011;54941;52.220;104.306;2024-03-02T07:15:08;12.60;;;5.05;;
68140;SDS011;54941;52.220;104.306;2024-03-02T07:17:35;11.98;;;4.18;;
68140;SDS011;54941;52.220;104.306;2024-03-02T07:20:01;17.02;;;5.85;;
68140;SDS011;54941;52.220;104.306;2024-03-02T07:22:29;11.50;;;3.95;;
68140;SDS011;54941;52.220;104.306;2024-03-02T07:24:55;12.88;;;4.30;;
68140;SDS011;54941;52.220;104.306;2024-03-02T07:27:22;10.85;;;4.45;;
68140;SDS011;54941;52.220;104.306;2024-03-02T07:29:50;11.63;;;4.03;;
68140;SDS011;54941;52.220;104.306;2024-03-02T07:32:16;9.68;;;4.20;;
68140;SDS011;54941;52.220;104.306;2024-03-02T07:34:42;9.55;;;4.30;;
68140;SDS011;54941;52.220;104.306;2024-03-02T07:37:08;8.90;;;4.57;;
68140;SDS011;54941;52.220;104.306;2024-03-02T07:39:35;11.45;;;4.30;;
68140;SDS011;54941;52.220;104.306;2024-03-02T07:42:01;8.23;;;4.18;;
68140;SDS011;54941;52.220;104.306;2024-03-02T07:44:28;8.27;;;4.13;;
68140;SDS011;54941;52.220;104.306;2024-03-02T07:46:55;8.10;;;4.18;;
68140;SDS011;54941;52.220;104.306;2024-03-02T07:49:22;8.18;;;3.95;;
68140;SDS011;54941;52.220;104.306;2024-03-02T07:51:48;9.18;;;4.38;;
68140;SDS011;54941;52.220;104.306;2024-03-02T07:54:14;7.82;;;3.90;;
68140;SDS011;54941;52.220;104.306;2024-03-02T07:56:41;12.07;;;4.55;;
68140;SDS011;54941;52.220;104.306;2024-03-02T07:59:07;10.15;;;4.40;;
68140;SDS011;54941;52.220;104.306;2024-03-02T08:01:33;8.77;;;4.20;;
68140;SDS011;54941;52.220;104.306;2024-03-02T08:04:02;7.95;;;3.83;;
68140;SDS011;54941;52.220;104.306;2024-03-02T08:06:28;10.82;;;4.35;;
68140;SDS011;54941;52.220;104.306;2024-03-02T08:08:55;8.07;;;4.15;;
68140;SDS011;54941;52.220;104.306;2024-03-02T08:11:22;8.88;;;4.25;;
68140;SDS011;54941;52.220;104.306;2024-03-02T08:13:48;9.55;;;3.95;;
68140;SDS011;54941;52.220;104.306;2024-03-02T08:16:14;9.00;;;3.72;;
68140;SDS011;54941;52.220;104.306;2024-03-02T08:18:41;9.55;;;4.00;;
68140;SDS011;54941;52.220;104.306;2024-03-02T08:21:09;11.60;;;4.88;;
68140;SDS011;54941;52.220;104.306;2024-03-02T08:23:35;11.23;;;5.25;;
68140;SDS011;54941;52.220;104.306;2024-03-02T08:26:02;10.82;;;5.45;;
68140;SDS011;54941;52.220;104.306;2024-03-02T08:28:28;11.68;;;4.22;;
68140;SDS011;54941;52.220;104.306;2024-03-02T08:30:55;11.32;;;4.90;;
68140;SDS011;54941;52.220;104.306;2024-03-02T08:33:21;11.63;;;5.18;;
68140;SDS011;54941;52.220;104.306;2024-03-02T08:35:47;10.18;;;4.80;;
68140;SDS011;54941;52.220;104.306;2024-03-02T08:38:15;13.05;;;5.03;;
68140;SDS011;54941;52.220;104.306;2024-03-02T08:40:41;11.75;;;4.60;;
68140;SDS011;54941;52.220;104.306;2024-03-02T08:43:08;11.18;;;5.50;;
68140;SDS011;54941;52.220;104.306;2024-03-02T08:45:34;10.82;;;4.25;;
68140;SDS011;54941;52.220;104.306;2024-03-02T08:48:00;11.77;;;4.65;;
68140;SDS011;54941;52.220;104.306;2024-03-02T08:50:27;11.07;;;4.63;;
68140;SDS011;54941;52.220;104.306;2024-03-02T08:52:53;9.13;;;4.38;;
68140;SDS011;54941;52.220;104.306;2024-03-02T08:55:21;10.43;;;4.63;;
68140;SDS011;54941;52.220;104.306;2024-03-02T08:57:47;10.35;;;4.90;;
68140;SDS011;54941;52.220;104.306;2024-03-02T09:00:13;12.18;;;5.72;;
68140;SDS011;54941;52.220;104.306;2024-03-02T09:02:40;13.65;;;5.70;;
68140;SDS011;54941;52.220;104.306;2024-03-02T09:05:06;16.02;;;6.43;;
68140;SDS011;54941;52.220;104.306;2024-03-02T09:07:33;12.90;;;6.13;;
68140;SDS011;54941;52.220;104.306;2024-03-02T09:10:00;10.82;;;4.47;;
68140;SDS011;54941;52.220;104.306;2024-03-02T09:12:27;10.35;;;4.70;;
68140;SDS011;54941;52.220;104.306;2024-03-02T09:14:54;9.90;;;4.35;;
68140;SDS011;54941;52.220;104.306;2024-03-02T09:17:20;11.60;;;4.05;;
68140;SDS011;54941;52.220;104.306;2024-03-02T09:19:46;11.60;;;5.70;;
68140;SDS011;54941;52.220;104.306;2024-03-02T09:22:12;10.77;;;4.47;;
68140;SDS011;54941;52.220;104.306;2024-03-02T09:24:39;13.32;;;5.70;;
68140;SDS011;54941;52.220;104.306;2024-03-02T09:27:05;13.38;;;4.20;;
68140;SDS011;54941;52.220;104.306;2024-03-02T09:29:33;9.85;;;4.13;;
68140;SDS011;54941;52.220;104.306;2024-03-02T09:31:59;10.50;;;4.28;;
68140;SDS011;54941;52.220;104.306;2024-03-02T09:34:25;8.70;;;3.92;;
68140;SDS011;54941;52.220;104.306;2024-03-02T09:36:52;9.93;;;4.13;;
68140;SDS011;54941;52.220;104.306;2024-03-02T09:39:18;8.65;;;4.45;;
68140;SDS011;54941;52.220;104.306;2024-03-02T09:41:44;9.68;;;4.05;;
68140;SDS011;54941;52.220;104.306;2024-03-02T09:44:11;9.23;;;4.05;;
68140;SDS011;54941;52.220;104.306;2024-03-02T09:46:39;10.48;;;4.07;;
68140;SDS011;54941;52.220;104.306;2024-03-02T09:49:05;9.70;;;4.45;;
68140;SDS011;54941;52.220;104.306;2024-03-02T09:51:31;11.02;;;4.53;;
68140;SDS011;54941;52.220;104.306;2024-03-02T09:53:58;10.15;;;5.20;;
68140;SDS011;54941;52.220;104.306;2024-03-02T09:56:27;15.32;;;6.03;;
68140;SDS011;54941;52.220;104.306;2024-03-02T09:58:53;16.25;;;7.80;;
68140;SDS011;54941;52.220;104.306;2024-03-02T10:01:19;16.10;;;6.47;;
68140;SDS011;54941;52.220;104.306;2024-03-02T10:03:47;18.50;;;7.22;;
68140;SDS011;54941;52.220;104.306;2024-03-02T10:06:20;20.83;;;7.82;;
68140;SDS011;54941;52.220;104.306;2024-03-02T10:08:47;21.08;;;7.57;;
68140;SDS011;54941;52.220;104.306;2024-03-02T10:11:24;19.50;;;7.35;;
68140;SDS011;54941;52.220;104.306;2024-03-02T10:13:53;22.40;;;8.63;;
68140;SDS011;54941;52.220;104.306;2024-03-02T10:16:33;27.17;;;9.02;;
68140;SDS011;54941;52.220;104.306;2024-03-02T10:19:05;25.05;;;10.15;;
68140;SDS011;54941;52.220;104.306;2024-03-02T10:21:41;28.35;;;10.85;;
68140;SDS011;54941;52.220;104.306;2024-03-02T10:24:07;28.05;;;10.40;;
68140;SDS011;54941;52.220;104.306;2024-03-02T10:26:34;24.30;;;10.43;;
68140;SDS011;54941;52.220;104.306;2024-03-02T10:29:00;30.83;;;11.55;;
68140;SDS011;54941;52.220;104.306;2024-03-02T10:31:26;26.13;;;10.30;;
68140;SDS011;54941;52.220;104.306;2024-03-02T10:33:53;26.38;;;10.07;;
68140;SDS011;54941;52.220;104.306;2024-03-02T10:36:21;28.92;;;10.35;;
68140;SDS011;54941;52.220;104.306;2024-03-02T10:38:48;21.55;;;8.90;;
68140;SDS011;54941;52.220;104.306;2024-03-02T10:41:16;27.92;;;9.00;;
68140;SDS011;54941;52.220;104.306;2024-03-02T10:43:43;25.02;;;8.73;;
68140;SDS011;54941;52.220;104.306;2024-03-02T10:46:12;24.15;;;8.88;;
68140;SDS011;54941;52.220;104.306;2024-03-02T10:48:40;27.48;;;9.25;;
68140;SDS011;54941;52.220;104.306;2024-03-02T10:51:09;18.08;;;7.28;;
68140;SDS011;54941;52.220;104.306;2024-03-02T10:53:37;19.45;;;7.38;;
68140;SDS011;54941;52.220;104.306;2024-03-02T10:56:03;22.90;;;7.70;;
68140;SDS011;54941;52.220;104.306;2024-03-02T10:58:33;17.65;;;7.10;;
68140;SDS011;54941;52.220;104.306;2024-03-02T11:00:59;20.27;;;7.72;;
68140;SDS011;54941;52.220;104.306;2024-03-02T11:03:29;16.95;;;7.80;;
68140;SDS011;54941;52.220;104.306;2024-03-02T11:05:59;20.20;;;7.15;;
68140;SDS011;54941;52.220;104.306;2024-03-02T11:08:26;21.83;;;7.38;;
68140;SDS011;54941;52.220;104.306;2024-03-02T11:10:57;18.60;;;7.53;;
68140;SDS011;54941;52.220;104.306;2024-03-02T11:13:31;19.50;;;8.65;;
68140;SDS011;54941;52.220;104.306;2024-03-02T11:15:59;19.83;;;8.32;;
68140;SDS011;54941;52.220;104.306;2024-03-02T11:18:31;23.25;;;8.23;;
68140;SDS011;54941;52.220;104.306;2024-03-02T11:20:58;21.23;;;8.27;;
68140;SDS011;54941;52.220;104.306;2024-03-02T11:23:31;18.92;;;6.80;;
68140;SDS011;54941;52.220;104.306;2024-03-02T11:28:43;19.65;;;7.68;;
68140;SDS011;54941;52.220;104.306;2024-03-02T11:31:10;23.42;;;8.07;;
68140;SDS011;54941;52.220;104.306;2024-03-02T11:33:36;23.90;;;8.40;;
68140;SDS011;54941;52.220;104.306;2024-03-02T11:36:03;22.67;;;9.70;;
68140;SDS011;54941;52.220;104.306;2024-03-02T11:38:31;20.52;;;9.25;;
68140;SDS011;54941;52.220;104.306;2024-03-02T11:40:59;23.95;;;9.27;;
68140;SDS011;54941;52.220;104.306;2024-03-02T11:43:29;23.98;;;8.82;;
68140;SDS011;54941;52.220;104.306;2024-03-02T11:45:58;22.10;;;8.77;;
68140;SDS011;54941;52.220;104.306;2024-03-02T11:48:25;21.63;;;9.13;;
68140;SDS011;54941;52.220;104.306;2024-03-02T11:50:52;24.02;;;9.00;;
68140;SDS011;54941;52.220;104.306;2024-03-02T11:53:19;20.52;;;9.35;;
68140;SDS011;54941;52.220;104.306;2024-03-02T11:55:46;21.67;;;9.00;;
68140;SDS011;54941;52.220;104.306;2024-03-02T11:58:14;25.33;;;9.48;;
68140;SDS011;54941;52.220;104.306;2024-03-02T12:00:43;23.10;;;8.63;;
68140;SDS011;54941;52.220;104.306;2024-03-02T12:03:10;22.15;;;10.02;;
68140;SDS011;54941;52.220;104.306;2024-03-02T12:05:39;26.52;;;9.52;;
68140;SDS011;54941;52.220;104.306;2024-03-02T12:08:06;25.52;;;9.02;;
68140;SDS011;54941;52.220;104.306;2024-03-02T12:10:32;22.67;;;9.98;;
68140;SDS011;54941;52.220;104.306;2024-03-02T12:12:59;20.77;;;8.68;;
68140;SDS011;54941;52.220;104.306;2024-03-02T12:15:27;20.88;;;8.77;;
68140;SDS011;54941;52.220;104.306;2024-03-02T12:17:56;25.50;;;10.23;;
68140;SDS011;54941;52.220;104.306;2024-03-02T12:20:24;25.33;;;9.63;;
68140;SDS011;54941;52.220;104.306;2024-03-02T12:22:51;21.92;;;10.02;;
68140;SDS011;54941;52.220;104.306;2024-03-02T12:25:18;20.73;;;10.13;;
68140;SDS011;54941;52.220;104.306;2024-03-02T12:27:45;27.10;;;9.48;;
68140;SDS011;54941;52.220;104.306;2024-03-02T12:30:12;24.98;;;10.27;;
68140;SDS011;54941;52.220;104.306;2024-03-02T12:32:38;22.17;;;10.00;;
68140;SDS011;54941;52.220;104.306;2024-03-02T12:35:07;26.80;;;10.27;;
68140;SDS011;54941;52.220;104.306;2024-03-02T12:37:41;20.67;;;9.80;;
68140;SDS011;54941;52.220;104.306;2024-03-02T12:40:09;22.88;;;9.82;;
68140;SDS011;54941;52.220;104.306;2024-03-02T12:42:36;26.65;;;10.02;;
68140;SDS011;54941;52.220;104.306;2024-03-02T12:45:02;23.80;;;9.25;;
68140;SDS011;54941;52.220;104.306;2024-03-02T12:47:30;25.50;;;11.80;;
68140;SDS011;54941;52.220;104.306;2024-03-02T12:49:56;23.23;;;10.10;;
68140;SDS011;54941;52.220;104.306;2024-03-02T12:52:24;24.52;;;11.00;;
68140;SDS011;54941;52.220;104.306;2024-03-02T12:54:50;25.40;;;11.88;;
68140;SDS011;54941;52.220;104.306;2024-03-02T12:57:17;27.35;;;13.23;;
68140;SDS011;54941;52.220;104.306;2024-03-02T12:59:44;27.33;;;11.50;;
68140;SDS011;54941;52.220;104.306;2024-03-02T13:02:16;27.70;;;11.73;;
68140;SDS011;54941;52.220;104.306;2024-03-02T13:04:43;25.33;;;10.98;;
68140;SDS011;54941;52.220;104.306;2024-03-02T13:07:09;25.80;;;11.38;;
68140;SDS011;54941;52.220;104.306;2024-03-02T13:09:38;24.95;;;13.02;;
68140;SDS011;54941;52.220;104.306;2024-03-02T13:12:04;32.95;;;14.20;;
68140;SDS011;54941;52.220;104.306;2024-03-02T13:14:32;25.15;;;13.25;;
68140;SDS011;54941;52.220;104.306;2024-03-02T13:16:58;30.73;;;14.05;;
68140;SDS011;54941;52.220;104.306;2024-03-02T13:19:24;27.30;;;11.75;;
68140;SDS011;54941;52.220;104.306;2024-03-02T13:21:51;27.00;;;12.82;;
68140;SDS011;54941;52.220;104.306;2024-03-02T13:24:17;22.88;;;11.52;;
68140;SDS011;54941;52.220;104.306;2024-03-02T13:26:45;30.75;;;12.82;;
68140;SDS011;54941;52.220;104.306;2024-03-02T13:29:11;33.38;;;14.75;;
68140;SDS011;54941;52.220;104.306;2024-03-02T13:31:37;36.05;;;17.40;;
68140;SDS011;54941;52.220;104.306;2024-03-02T13:34:04;46.22;;;21.55;;
68140;SDS011;54941;52.220;104.306;2024-03-02T13:36:30;40.90;;;18.42;;
68140;SDS011;54941;52.220;104.306;2024-03-02T13:38:56;40.80;;;16.60;;
68140;SDS011;54941;52.220;104.306;2024-03-02T13:41:22;32.88;;;14.68;;
68140;SDS011;54941;52.220;104.306;2024-03-02T13:43:50;41.15;;;17.38;;
68140;SDS011;54941;52.220;104.306;2024-03-02T13:46:16;33.97;;;13.73;;
68140;SDS011;54941;52.220;104.306;2024-03-02T13:48:43;35.72;;;14.77;;
68140;SDS011;54941;52.220;104.306;2024-03-02T13:51:09;34.15;;;14.63;;
68140;SDS011;54941;52.220;104.306;2024-03-02T13:53:35;29.42;;;13.50;;
68140;SDS011;54941;52.220;104.306;2024-03-02T13:56:02;30.98;;;12.80;;
68140;SDS011;54941;52.220;104.306;2024-03-02T13:58:30;26.70;;;13.23;;
68140;SDS011;54941;52.220;104.306;2024-03-02T14:00:57;28.88;;;14.43;;
68140;SDS011;54941;52.220;104.306;2024-03-02T14:03:24;26.45;;;12.68;;
68140;SDS011;54941;52.220;104.306;2024-03-02T14:05:51;24.45;;;10.57;;
68140;SDS011;54941;52.220;104.306;2024-03-02T14:08:17;22.05;;;9.18;;
68140;SDS011;54941;52.220;104.306;2024-03-02T14:10:44;21.73;;;9.63;;
68140;SDS011;54941;52.220;104.306;2024-03-02T14:13:10;23.40;;;11.25;;